createdAt,value
2022-11-27T00:01:34.528Z,7.61
2022-11-27T00:04:03.046Z,7.94
2022-11-27T00:06:32.191Z,7.94
2022-11-27T00:09:01.228Z,8.18
2022-11-27T00:11:30.582Z,7.97
2022-11-27T00:13:59.228Z,8.32
2022-11-27T00:16:28.204Z,8.31
2022-11-27T00:18:57.060Z,8.22
2022-11-27T00:21:27.270Z,8.31
2022-11-27T00:23:56.600Z,7.81
2022-11-27T00:26:25.591Z,8.10
2022-11-27T00:28:54.760Z,7.89
2022-11-27T00:31:29.548Z,7.87
2022-11-27T00:34:02.930Z,7.62
2022-11-27T00:36:32.590Z,7.59
2022-11-27T00:39:00.885Z,7.91
2022-11-27T00:41:30.160Z,7.89
2022-11-27T00:43:59.355Z,7.92
2022-11-27T00:46:30.626Z,7.74
2022-11-27T00:48:59.534Z,7.66
2022-11-27T00:51:28.241Z,7.70
2022-11-27T00:53:56.934Z,7.56
2022-11-27T00:56:30.002Z,7.39
2022-11-27T00:58:58.689Z,7.63
2022-11-27T01:01:29.513Z,7.56
2022-11-27T01:03:59.497Z,7.73
2022-11-27T01:06:29.798Z,7.57
2022-11-27T01:08:58.492Z,7.40
2022-11-27T01:11:30.998Z,7.36
2022-11-27T01:14:01.789Z,7.61
2022-11-27T01:16:30.673Z,7.91
2022-11-27T01:18:59.687Z,7.48
2022-11-27T01:21:29.930Z,7.83
2022-11-27T01:23:58.099Z,7.54
2022-11-27T01:26:25.979Z,7.79
2022-11-27T01:28:55.578Z,7.53
2022-11-27T01:31:25.943Z,7.84
2022-11-27T01:33:56.359Z,7.56
2022-11-27T01:36:24.708Z,7.33
2022-11-27T01:38:52.608Z,7.53
2022-11-27T01:41:29.280Z,7.64
2022-11-27T01:44:26.208Z,7.66
2022-11-27T01:47:02.391Z,7.50
2022-11-27T01:49:37.119Z,7.37
2022-11-27T01:52:12.511Z,7.53
2022-11-27T01:54:45.038Z,7.46
2022-11-27T01:57:17.419Z,7.33
2022-11-27T01:59:47.038Z,7.56
2022-11-27T02:02:15.446Z,7.63
2022-11-27T02:04:43.830Z,7.51
2022-11-27T02:07:12.119Z,7.54
2022-11-27T02:09:40.418Z,7.67
2022-11-27T02:12:31.399Z,7.63
2022-11-27T02:15:14.942Z,7.77
2022-11-27T02:17:59.271Z,7.70
2022-11-27T02:20:50.106Z,7.55
2022-11-27T02:23:45.928Z,7.05
2022-11-27T02:26:20.129Z,7.19
2022-11-27T02:29:08.249Z,7.30
2022-11-27T02:31:59.192Z,7.47
2022-11-27T02:34:45.584Z,7.51
2022-11-27T02:37:22.817Z,7.44
2022-11-27T02:40:03.702Z,7.51
2022-11-27T02:42:35.804Z,7.14
2022-11-27T02:45:10.677Z,7.48
2022-11-27T02:47:40.490Z,7.49
2022-11-27T02:50:15.920Z,7.20
2022-11-27T02:52:45.310Z,7.32
2022-11-27T02:55:15.780Z,7.11
2022-11-27T02:57:44.680Z,6.86
2022-11-27T03:00:13.619Z,7.31
2022-11-27T03:02:46.663Z,7.12
2022-11-27T03:05:17.888Z,7.22
2022-11-27T03:07:51.952Z,7.33
2022-11-27T03:10:26.670Z,7.10
2022-11-27T03:12:54.630Z,7.21
2022-11-27T03:15:23.606Z,7.36
2022-11-27T03:18:39.587Z,7.32
2022-11-27T03:21:33.510Z,6.89
2022-11-27T03:24:01.821Z,7.07
2022-11-27T03:26:30.029Z,6.84
2022-11-27T03:28:59.231Z,6.64
2022-11-27T03:31:27.340Z,6.94
2022-11-27T03:33:55.490Z,6.66
2022-11-27T03:36:23.380Z,7.00
2022-11-27T03:38:52.226Z,6.70
2022-11-27T03:41:33.100Z,6.71
2022-11-27T03:44:22.770Z,6.83
2022-11-27T03:46:59.741Z,7.02
2022-11-27T03:49:36.540Z,6.72
2022-11-27T03:52:09.029Z,6.44
2022-11-27T03:54:44.309Z,6.54
2022-11-27T03:57:18.399Z,6.68
2022-11-27T03:59:48.150Z,6.60
2022-11-27T04:02:18.105Z,6.22
2022-11-27T04:04:46.362Z,6.15
2022-11-27T04:07:17.882Z,6.36
2022-11-27T04:09:46.085Z,6.23
2022-11-27T04:12:14.060Z,6.54
2022-11-27T04:14:42.124Z,6.17
2022-11-27T04:17:10.585Z,6.53
2022-11-27T04:19:38.379Z,6.41
2022-11-27T04:22:06.292Z,6.47
2022-11-27T04:24:34.508Z,6.55
2022-11-27T04:27:02.429Z,6.49
2022-11-27T04:29:30.269Z,6.51
2022-11-27T04:31:58.390Z,6.26
2022-11-27T04:34:26.281Z,6.49
2022-11-27T04:36:54.249Z,6.23
2022-11-27T04:39:22.373Z,5.89
2022-11-27T04:41:50.360Z,6.47
2022-11-27T04:44:18.278Z,5.95
2022-11-27T04:46:46.594Z,6.55
2022-11-27T04:49:14.428Z,6.04
2022-11-27T04:51:42.249Z,6.22
2022-11-27T04:54:10.560Z,5.98
2022-11-27T04:56:38.509Z,5.63
2022-11-27T04:59:06.460Z,5.43
2022-11-27T05:01:34.660Z,5.57
2022-11-27T05:04:02.668Z,5.42
2022-11-27T05:06:30.529Z,5.53
2022-11-27T05:09:02.322Z,5.06
2022-11-27T05:11:31.128Z,5.39
2022-11-27T05:14:18.361Z,5.93
2022-11-27T05:16:51.530Z,5.60
2022-11-27T05:19:21.850Z,6.04
2022-11-27T05:21:50.334Z,5.80
2022-11-27T05:24:19.539Z,5.53
2022-11-27T05:26:47.830Z,5.74
2022-11-27T05:29:16.421Z,5.84
2022-11-27T05:31:45.016Z,5.94
2022-11-27T05:34:13.240Z,5.60
2022-11-27T05:36:42.072Z,5.76
2022-11-27T05:39:11.048Z,5.72
2022-11-27T05:41:41.108Z,5.87
2022-11-27T05:44:11.879Z,5.86
2022-11-27T05:46:40.186Z,5.88
2022-11-27T05:49:08.100Z,6.24
2022-11-27T05:51:35.848Z,5.95
2022-11-27T05:54:04.120Z,5.66
2022-11-27T05:56:31.959Z,5.84
2022-11-27T05:58:59.938Z,6.05
2022-11-27T06:01:28.308Z,6.10
2022-11-27T06:03:56.529Z,6.11
2022-11-27T06:06:24.540Z,6.17
2022-11-27T06:08:52.401Z,6.17
2022-11-27T06:11:21.939Z,6.04
2022-11-27T06:13:50.269Z,5.99
2022-11-27T06:16:20.957Z,6.11
2022-11-27T06:18:51.321Z,5.56
2022-11-27T06:21:19.979Z,6.14
2022-11-27T06:23:48.060Z,6.01
2022-11-27T06:26:21.779Z,6.11
2022-11-27T06:28:50.400Z,5.84
2022-11-27T06:31:22.622Z,6.24
2022-11-27T06:33:52.159Z,5.86
2022-11-27T06:36:21.159Z,6.15
2022-11-27T06:38:49.140Z,5.99
2022-11-27T06:41:20.119Z,6.06
2022-11-27T06:43:48.537Z,5.96
2022-11-27T06:46:18.339Z,6.48
2022-11-27T06:48:47.888Z,6.99
2022-11-27T06:51:18.175Z,6.52
2022-11-27T06:53:46.314Z,6.62
2022-11-27T06:56:16.330Z,6.38
2022-11-27T06:58:45.070Z,6.39
2022-11-27T07:01:14.940Z,6.53
2022-11-27T07:03:43.370Z,6.82
2022-11-27T07:06:13.178Z,6.57
2022-11-27T07:08:41.242Z,6.26
2022-11-27T07:11:14.591Z,6.42
2022-11-27T07:13:42.929Z,6.70
2022-11-27T07:16:11.838Z,6.87
2022-11-27T07:19:00.053Z,6.57
2022-11-27T07:21:28.661Z,6.32
2022-11-27T07:23:56.923Z,6.68
2022-11-27T07:26:27.211Z,6.54
2022-11-27T07:28:55.741Z,6.81
2022-11-27T07:31:29.279Z,7.01
2022-11-27T07:33:57.710Z,6.65
2022-11-27T07:36:28.209Z,6.75
2022-11-27T07:38:58.324Z,6.90
2022-11-27T07:41:32.195Z,6.99
2022-11-27T07:44:01.890Z,7.18
2022-11-27T07:46:30.954Z,7.09
2022-11-27T07:49:00.859Z,7.09
2022-11-27T07:51:28.940Z,6.88
2022-11-27T07:54:00.098Z,7.03
2022-11-27T07:56:28.216Z,7.02
2022-11-27T07:58:58.384Z,7.10
2022-11-27T08:01:26.944Z,7.07
2022-11-27T08:03:55.341Z,6.92
2022-11-27T08:06:25.209Z,7.19
2022-11-27T08:08:56.170Z,7.28
2022-11-27T08:11:30.429Z,7.19
2022-11-27T08:14:00.685Z,7.37
2022-11-27T08:16:29.527Z,7.42
2022-11-27T08:18:58.110Z,7.60
2022-11-27T08:21:27.003Z,7.35
2022-11-27T08:23:55.501Z,7.45
2022-11-27T08:26:23.662Z,7.76
2022-11-27T08:28:53.345Z,7.56
2022-11-27T08:31:21.921Z,6.94
2022-11-27T08:33:50.370Z,7.37
2022-11-27T08:36:18.647Z,7.60
2022-11-27T08:38:47.551Z,7.50
2022-11-27T08:41:15.463Z,7.95
2022-11-27T08:43:43.515Z,7.46
2022-11-27T08:46:12.161Z,7.45
2022-11-27T08:48:40.700Z,7.64
2022-11-27T08:51:12.135Z,7.78
2022-11-27T08:53:40.842Z,7.68
2022-11-27T08:56:11.930Z,7.57
2022-11-27T08:58:41.353Z,7.55
2022-11-27T09:01:11.678Z,7.60
2022-11-27T09:03:39.893Z,7.95
2022-11-27T09:06:10.665Z,7.70
2022-11-27T09:08:39.586Z,7.91
2022-11-27T09:11:08.232Z,7.58
2022-11-27T09:13:40.501Z,8.17
2022-11-27T09:16:11.475Z,8.24
2022-11-27T09:18:40.259Z,8.39
2022-11-27T09:21:10.229Z,7.86
2022-11-27T09:23:39.825Z,8.10
2022-11-27T09:26:10.861Z,8.09
2022-11-27T09:28:39.261Z,8.05
2022-11-27T09:31:09.856Z,7.96
2022-11-27T09:33:39.877Z,7.91
2022-11-27T09:36:10.291Z,7.85
2022-11-27T09:38:38.803Z,8.42
2022-11-27T09:41:23.930Z,8.05
2022-11-27T09:43:59.711Z,8.16
2022-11-27T09:46:40.450Z,8.42
2022-11-27T09:49:13.156Z,8.23
2022-11-27T09:51:48.342Z,7.75
2022-11-27T09:54:20.431Z,8.06
2022-11-27T09:56:51.351Z,8.53
2022-11-27T09:59:25.763Z,7.98
2022-11-27T10:01:53.927Z,7.82
2022-11-27T10:04:22.810Z,7.68
2022-11-27T10:07:14.013Z,7.93
2022-11-27T10:10:07.319Z,7.75
2022-11-27T10:12:49.571Z,7.92
2022-11-27T10:15:33.395Z,7.95
2022-11-27T10:18:09.769Z,8.13
2022-11-27T10:20:45.051Z,8.33
2022-11-27T10:23:37.954Z,8.70
2022-11-27T10:26:15.922Z,8.14
2022-11-27T10:28:55.804Z,7.86
2022-11-27T10:31:46.026Z,7.96
2022-11-27T10:34:48.851Z,8.04
2022-11-27T10:37:30.762Z,8.39
2022-11-27T10:40:04.011Z,7.97
2022-11-27T10:42:36.831Z,8.32
2022-11-27T10:45:07.721Z,8.30
2022-11-27T10:47:38.561Z,7.87
2022-11-27T10:50:14.020Z,8.08
2022-11-27T10:53:00.870Z,7.73
2022-11-27T10:55:39.523Z,7.52
2022-11-27T10:58:26.335Z,7.57
2022-11-27T11:01:05.639Z,7.73
2022-11-27T11:03:34.350Z,8.22
2022-11-27T11:06:20.940Z,7.94
2022-11-27T11:09:29.392Z,8.35
2022-11-27T11:12:13.541Z,8.43
2022-11-27T11:14:52.167Z,7.95
2022-11-27T11:17:26.898Z,8.24
2022-11-27T11:19:55.332Z,8.55
2022-11-27T11:22:24.905Z,8.04
2022-11-27T11:24:53.850Z,8.14
2022-11-27T11:27:27.130Z,7.72
2022-11-27T11:30:00.954Z,8.13
2022-11-27T11:32:32.372Z,8.06
2022-11-27T11:35:03.851Z,8.12
2022-11-27T11:37:34.476Z,8.31
2022-11-27T11:40:12.051Z,8.27
2022-11-27T11:42:59.157Z,8.67
2022-11-27T11:45:32.663Z,8.35
2022-11-27T11:48:04.183Z,8.49
2022-11-27T11:51:15.420Z,8.21
2022-11-27T11:53:45.777Z,8.31
2022-11-27T11:56:27.291Z,7.90
2022-11-27T11:59:05.659Z,7.83
2022-11-27T12:01:36.920Z,7.88
2022-11-27T12:04:43.274Z,8.08
2022-11-27T12:07:46.320Z,8.15
2022-11-27T12:10:32.060Z,7.94
2022-11-27T12:13:03.380Z,8.00
2022-11-27T12:15:50.274Z,8.02
2022-11-27T12:18:18.190Z,7.98
2022-11-27T12:21:05.239Z,8.25
2022-11-27T12:23:36.381Z,7.93
2022-11-27T12:26:14.602Z,7.98
2022-11-27T12:29:04.521Z,8.31
2022-11-27T12:31:42.114Z,8.10
2022-11-27T12:34:22.982Z,7.95
2022-11-27T12:37:16.464Z,7.92
2022-11-27T12:40:08.087Z,7.87
2022-11-27T12:42:45.823Z,7.99
2022-11-27T12:45:19.864Z,8.34
2022-11-27T12:48:01.959Z,8.06
2022-11-27T12:50:42.600Z,7.93
2022-11-27T12:53:25.036Z,7.95
2022-11-27T12:56:18.431Z,8.05
2022-11-27T12:59:45.480Z,8.03
2022-11-27T13:02:34.727Z,8.00
2022-11-27T13:05:10.914Z,7.71
2022-11-27T13:07:56.005Z,7.85
2022-11-27T13:10:41.293Z,8.08
2022-11-27T13:13:16.080Z,8.20
2022-11-27T13:15:53.950Z,8.15
2022-11-27T13:18:37.789Z,8.06
2022-11-27T13:21:09.990Z,7.98
2022-11-27T13:23:38.078Z,8.03
2022-11-27T13:26:36.280Z,7.78
2022-11-27T13:29:08.242Z,7.74
2022-11-27T13:31:39.467Z,8.10
2022-11-27T13:34:10.354Z,8.02
2022-11-27T13:36:41.129Z,7.92
2022-11-27T13:39:25.713Z,8.28
2022-11-27T13:42:22.372Z,8.17
2022-11-27T13:44:58.769Z,8.02
2022-11-27T13:47:29.750Z,8.07
2022-11-27T13:50:10.637Z,8.32
2022-11-27T13:53:00.533Z,8.22
2022-11-27T13:55:34.971Z,7.97
2022-11-27T13:58:04.679Z,8.00
2022-11-27T14:00:36.504Z,7.93
2022-11-27T14:03:06.104Z,8.01
2022-11-27T14:05:44.781Z,8.05
2022-11-27T14:08:22.813Z,7.92
2022-11-27T14:11:07.170Z,8.15
2022-11-27T14:13:47.301Z,7.94
2022-11-27T14:16:28.228Z,8.31
2022-11-27T14:19:21.243Z,7.82
2022-11-27T14:21:49.632Z,8.30
2022-11-27T14:24:41.797Z,8.16
2022-11-27T14:27:22.172Z,7.86
2022-11-27T14:29:53.370Z,7.64
2022-11-27T14:32:21.719Z,8.12
2022-11-27T14:34:49.809Z,7.82
2022-11-27T14:37:25.792Z,8.59
2022-11-27T14:39:54.374Z,7.56
2022-11-27T14:42:29.496Z,7.69
2022-11-27T14:45:18.921Z,7.50
2022-11-27T14:47:50.575Z,7.43
2022-11-27T14:50:19.845Z,7.75
2022-11-27T14:52:56.730Z,7.65
2022-11-27T14:55:24.504Z,7.84
2022-11-27T14:57:52.884Z,7.96
2022-11-27T15:00:27.462Z,8.05
2022-11-27T15:02:56.937Z,8.06
2022-11-27T15:05:27.222Z,7.85
2022-11-27T15:07:57.717Z,7.40
2022-11-27T15:10:40.975Z,7.24
2022-11-27T15:13:22.559Z,7.69
2022-11-27T15:16:01.372Z,7.29
2022-11-27T15:18:31.671Z,7.53
2022-11-27T15:21:00.620Z,7.19
2022-11-27T15:23:30.869Z,7.56
2022-11-27T15:25:59.932Z,7.75
2022-11-27T15:28:36.832Z,7.71
2022-11-27T15:31:44.346Z,7.16
2022-11-27T15:34:18.303Z,7.83
2022-11-27T15:37:06.780Z,8.15
2022-11-27T15:39:39.079Z,7.40
2022-11-27T15:42:10.311Z,7.50
2022-11-27T15:44:39.069Z,7.58
2022-11-27T15:47:29.559Z,7.49
2022-11-27T15:49:58.312Z,7.27
2022-11-27T15:52:27.595Z,7.34
2022-11-27T15:54:58.489Z,7.13
2022-11-27T15:57:26.929Z,7.52
2022-11-27T15:59:54.971Z,7.38
2022-11-27T16:02:23.520Z,7.42
2022-11-27T16:04:52.040Z,7.50
2022-11-27T16:07:20.199Z,7.45
2022-11-27T16:09:48.353Z,7.68
2022-11-27T16:12:16.943Z,7.63
2022-11-27T16:14:44.985Z,7.48
2022-11-27T16:17:13.101Z,7.47
2022-11-27T16:19:41.639Z,7.07
2022-11-27T16:22:09.867Z,7.19
2022-11-27T16:24:38.511Z,7.33
2022-11-27T16:27:08.036Z,7.49
2022-11-27T16:29:36.191Z,7.55
2022-11-27T16:32:04.501Z,7.25
2022-11-27T16:34:34.471Z,7.52
2022-11-27T16:37:02.718Z,7.53
2022-11-27T16:39:31.041Z,7.58
2022-11-27T16:42:00.331Z,7.37
2022-11-27T16:44:28.565Z,7.75
2022-11-27T16:46:56.690Z,7.12
2022-11-27T16:49:25.121Z,7.53
2022-11-27T16:51:53.233Z,7.53
2022-11-27T16:54:21.671Z,7.27
2022-11-27T16:56:52.019Z,7.26
2022-11-27T16:59:20.282Z,7.08
2022-11-27T17:01:48.471Z,7.13
2022-11-27T17:04:19.154Z,7.27
2022-11-27T17:06:48.964Z,6.94
2022-11-27T17:09:18.625Z,7.19
2022-11-27T17:11:51.100Z,7.13
2022-11-27T17:14:20.720Z,7.19
2022-11-27T17:16:50.091Z,7.21
2022-11-27T17:19:19.173Z,7.09
2022-11-27T17:21:48.027Z,7.58
2022-11-27T17:24:16.920Z,7.61
2022-11-27T17:26:46.274Z,7.24
2022-11-27T17:29:18.450Z,7.42
2022-11-27T17:31:46.583Z,6.95
2022-11-27T17:34:17.643Z,6.83
2022-11-27T17:36:46.223Z,7.36
2022-11-27T17:39:15.576Z,6.94
2022-11-27T17:41:47.391Z,7.00
2022-11-27T17:44:16.224Z,7.06
2022-11-27T17:46:50.094Z,7.25
2022-11-27T17:49:22.251Z,7.54
2022-11-27T17:51:50.598Z,7.57
2022-11-27T17:54:19.150Z,7.19
2022-11-27T17:56:51.688Z,6.84
2022-11-27T17:59:20.372Z,6.69
2022-11-27T18:01:51.630Z,7.47
2022-11-27T18:04:20.690Z,7.16
2022-11-27T18:06:49.339Z,7.21
2022-11-27T18:09:17.790Z,7.29
2022-11-27T18:11:46.581Z,7.33
2022-11-27T18:14:14.576Z,7.30
2022-11-27T18:16:42.799Z,7.28
2022-11-27T18:19:11.533Z,7.23
2022-11-27T18:21:39.803Z,6.99
2022-11-27T18:24:23.120Z,7.72
2022-11-27T18:27:11.328Z,6.98
2022-11-27T18:29:42.741Z,6.88
2022-11-27T18:32:12.725Z,6.82
2022-11-27T18:34:41.541Z,6.77
2022-11-27T18:37:10.330Z,7.12
2022-11-27T18:39:40.359Z,7.00
2022-11-27T18:42:08.770Z,7.46
2022-11-27T18:44:44.327Z,7.19
2022-11-27T18:47:15.085Z,7.09
2022-11-27T18:49:44.024Z,7.06
2022-11-27T18:52:13.363Z,6.97
2022-11-27T18:54:41.592Z,7.20
2022-11-27T18:57:11.384Z,6.94
2022-11-27T18:59:40.116Z,7.77
2022-11-27T19:02:09.361Z,7.74
2022-11-27T19:04:40.560Z,7.32
2022-11-27T19:07:09.274Z,7.26
2022-11-27T19:09:37.660Z,7.53
2022-11-27T19:12:05.792Z,7.43
2022-11-27T19:14:34.548Z,7.34
2022-11-27T19:17:02.572Z,7.07
2022-11-27T19:22:21.988Z,7.34
2022-11-27T19:24:49.962Z,7.40
2022-11-27T19:27:19.081Z,7.50
2022-11-27T19:29:49.230Z,7.26
2022-11-27T19:32:17.608Z,7.13
2022-11-27T19:34:46.452Z,7.25
2022-11-27T19:37:14.911Z,7.37
2022-11-27T19:39:42.969Z,7.54
2022-11-27T19:42:11.161Z,7.57
2022-11-27T19:44:40.013Z,7.32
2022-11-27T19:47:09.924Z,7.65
2022-11-27T19:49:38.377Z,7.37
2022-11-27T19:52:09.009Z,7.06
2022-11-27T19:54:37.754Z,7.01
2022-11-27T19:57:06.284Z,6.94
2022-11-27T19:59:36.994Z,7.31
2022-11-27T20:02:06.075Z,7.25
2022-11-27T20:04:35.708Z,7.02
2022-11-27T20:07:03.852Z,6.94
2022-11-27T20:09:34.010Z,6.52
2022-11-27T20:12:03.081Z,6.77
2022-11-27T20:14:33.740Z,7.10
2022-11-27T20:17:02.292Z,6.69
2022-11-27T20:19:31.192Z,7.07
2022-11-27T20:21:59.592Z,7.28
2022-11-27T20:24:27.591Z,7.00
2022-11-27T20:26:56.292Z,6.75
2022-11-27T20:29:24.430Z,6.45
2022-11-27T20:31:55.603Z,6.72
2022-11-27T20:34:24.071Z,6.72
2022-11-27T20:36:54.813Z,7.02
2022-11-27T20:39:25.277Z,6.78
2022-11-27T20:41:53.769Z,6.32
2022-11-27T20:44:22.819Z,6.50
2022-11-27T20:46:51.672Z,6.16
2022-11-27T20:49:21.390Z,6.88
2022-11-27T20:51:50.818Z,6.40
2022-11-27T20:54:19.980Z,6.60
2022-11-27T20:56:51.284Z,6.38
2022-11-27T20:59:20.130Z,6.13
2022-11-27T21:01:48.585Z,6.70
2022-11-27T21:04:23.176Z,7.09
2022-11-27T21:06:52.398Z,6.79
2022-11-27T21:09:20.990Z,6.89
2022-11-27T21:11:49.100Z,6.60
2022-11-27T21:14:18.139Z,6.71
2022-11-27T21:16:48.986Z,6.70
2022-11-27T21:19:20.650Z,6.71
2022-11-27T21:21:50.219Z,6.82
2022-11-27T21:24:19.836Z,6.56
2022-11-27T21:26:48.621Z,6.62
2022-11-27T21:29:17.048Z,6.41
2022-11-27T21:31:47.395Z,6.40
2022-11-27T21:34:16.162Z,6.42
2022-11-27T21:36:44.760Z,6.38
2022-11-27T21:39:20.555Z,6.95
2022-11-27T21:41:50.608Z,6.43
2022-11-27T21:44:19.731Z,6.48
2022-11-27T21:46:49.070Z,6.61
2022-11-27T21:49:19.258Z,6.86
2022-11-27T21:51:51.579Z,7.01
2022-11-27T21:54:20.040Z,6.82
2022-11-27T21:56:51.766Z,6.31
2022-11-27T21:59:19.772Z,6.86
2022-11-27T22:01:48.539Z,7.02
2022-11-27T22:04:17.534Z,6.79
2022-11-27T22:06:45.713Z,7.24
2022-11-27T22:09:16.105Z,6.70
2022-11-27T22:11:46.076Z,6.43
2022-11-27T22:14:15.916Z,6.51
2022-11-27T22:16:46.460Z,6.61
2022-11-27T22:19:16.222Z,7.34
2022-11-27T22:21:44.931Z,6.85
2022-11-27T22:24:18.801Z,6.94
2022-11-27T22:26:49.011Z,6.97
2022-11-27T22:29:17.145Z,6.93
2022-11-27T22:31:45.180Z,6.73
2022-11-27T22:34:14.110Z,6.74
2022-11-27T22:36:42.249Z,6.61
2022-11-27T22:39:10.731Z,6.32
2022-11-27T22:41:40.380Z,6.40
2022-11-27T22:44:16.624Z,6.62
2022-11-27T22:46:45.701Z,6.00
2022-11-27T22:49:16.046Z,6.15
2022-11-27T22:51:44.859Z,6.11
2022-11-27T22:54:15.222Z,5.54
2022-11-27T22:56:46.002Z,5.71
2022-11-27T23:02:04.390Z,6.70
2022-11-27T23:04:36.748Z,6.93
2022-11-27T23:07:05.903Z,6.31
2022-11-27T23:09:35.006Z,6.29
2022-11-27T23:12:03.249Z,6.32
2022-11-27T23:14:31.473Z,6.58
2022-11-27T23:16:59.841Z,6.75
2022-11-27T23:19:27.870Z,6.74
2022-11-27T23:21:55.804Z,6.67
2022-11-27T23:24:24.119Z,6.93
2022-11-27T23:26:52.089Z,6.38
2022-11-27T23:29:20.023Z,6.62
2022-11-27T23:31:48.451Z,6.68
2022-11-27T23:34:16.712Z,6.57
2022-11-27T23:36:44.895Z,6.60
2022-11-27T23:39:14.152Z,6.80
2022-11-27T23:41:42.970Z,6.33
2022-11-27T23:44:11.270Z,6.54
2022-11-27T23:46:39.940Z,6.51
2022-11-27T23:49:07.909Z,6.45
2022-11-27T23:51:35.936Z,6.72
2022-11-27T23:54:08.278Z,6.86
2022-11-27T23:56:37.450Z,6.70
2022-11-27T23:59:06.183Z,7.01
